sensor_id;sensor_type;location;lat;lon;timestamp;P1;durP1;ratioP1;P2;durP2;ratioP2
6019;SDS011;3038;51.122;6.840;2023-04-02T07:06:45;13.63;;;11.93;;
6019;SDS011;3038;51.122;6.840;2023-04-02T07:09:11;12.43;;;11.23;;
6019;SDS011;3038;51.122;6.840;2023-04-02T07:11:36;7.57;;;6.80;;
6019;SDS011;3038;51.122;6.840;2023-04-02T07:14:02;9.33;;;8.47;;
6019;SDS011;3038;51.122;6.840;2023-04-02T07:16:28;8.90;;;7.47;;
6019;SDS011;3038;51.122;6.840;2023-04-02T07:18:56;8.40;;;7.60;;
6019;SDS011;3038;51.122;6.840;2023-04-02T07:21:25;8.20;;;7.40;;
6019;SDS011;3038;51.122;6.840;2023-04-02T07:23:52;7.70;;;6.60;;
6019;SDS011;3038;51.122;6.840;2023-04-02T07:26:19;11.07;;;10.07;;
6019;SDS011;3038;51.122;6.840;2023-04-02T07:28:46;7.30;;;6.60;;
6019;SDS011;3038;51.122;6.840;2023-04-02T07:31:14;10.43;;;7.80;;
6019;SDS011;3038;51.122;6.840;2023-04-02T07:33:50;9.00;;;7.97;;
6019;SDS011;3038;51.122;6.840;2023-04-02T07:36:21;9.40;;;7.10;;
6019;SDS011;3038;51.122;6.840;2023-04-02T07:38:47;8.03;;;7.13;;
6019;SDS011;3038;51.122;6.840;2023-04-02T07:41:13;7.97;;;6.67;;
6019;SDS011;3038;51.122;6.840;2023-04-02T07:43:42;8.03;;;6.90;;
6019;SDS011;3038;51.122;6.840;2023-04-02T07:46:08;6.60;;;6.00;;
6019;SDS011;3038;51.122;6.840;2023-04-02T07:48:34;7.63;;;6.93;;
6019;SDS011;3038;51.122;6.840;2023-04-02T07:51:00;8.00;;;7.20;;
6019;SDS011;3038;51.122;6.840;2023-04-02T07:55:55;7.90;;;7.10;;
6019;SDS011;3038;51.122;6.840;2023-04-02T07:58:21;7.30;;;6.60;;
6019;SDS011;3038;51.122;6.840;2023-04-02T08:00:49;6.63;;;5.93;;
6019;SDS011;3038;51.122;6.840;2023-04-02T08:03:15;10.20;;;6.83;;
6019;SDS011;3038;51.122;6.840;2023-04-02T08:05:40;8.03;;;7.23;;
6019;SDS011;3038;51.122;6.840;2023-04-02T08:08:06;7.00;;;6.33;;
6019;SDS011;3038;51.122;6.840;2023-04-02T08:10:31;7.90;;;7.07;;
6019;SDS011;3038;51.122;6.840;2023-04-02T08:12:56;7.33;;;6.43;;
6019;SDS011;3038;51.122;6.840;2023-04-02T08:15:22;10.37;;;6.87;;
6019;SDS011;3038;51.122;6.840;2023-04-02T08:17:50;9.07;;;7.20;;
6019;SDS011;3038;51.122;6.840;2023-04-02T08:20:19;7.77;;;6.37;;
6019;SDS011;3038;51.122;6.840;2023-04-02T08:22:46;9.20;;;6.17;;
6019;SDS011;3038;51.122;6.840;2023-04-02T08:25:12;12.60;;;7.20;;
6019;SDS011;3038;51.122;6.840;2023-04-02T08:27:38;6.93;;;6.23;;
6019;SDS011;3038;51.122;6.840;2023-04-02T08:30:04;8.53;;;6.80;;
6019;SDS011;3038;51.122;6.840;2023-04-02T08:32:30;7.13;;;5.97;;
6019;SDS011;3038;51.122;6.840;2023-04-02T08:34:56;10.03;;;7.33;;
6019;SDS011;3038;51.122;6.840;2023-04-02T08:37:23;8.47;;;7.63;;
6019;SDS011;3038;51.122;6.840;2023-04-02T08:39:49;9.93;;;8.50;;
6019;SDS011;3038;51.122;6.840;2023-04-02T08:42:22;9.87;;;7.70;;
6019;SDS011;3038;51.122;6.840;2023-04-02T08:47:16;13.03;;;8.83;;
6019;SDS011;3038;51.122;6.840;2023-04-02T08:49:50;9.90;;;8.90;;
6019;SDS011;3038;51.122;6.840;2023-04-02T08:52:26;8.60;;;7.70;;
6019;SDS011;3038;51.122;6.840;2023-04-02T08:54:55;9.47;;;8.33;;
6019;SDS011;3038;51.122;6.840;2023-04-02T09:02:46;6.83;;;6.13;;
6019;SDS011;3038;51.122;6.840;2023-04-02T09:05:22;8.90;;;7.33;;
6019;SDS011;3038;51.122;6.840;2023-04-02T09:07:57;8.03;;;7.03;;
6019;SDS011;3038;51.122;6.840;2023-04-02T09:10:30;8.30;;;6.47;;
6019;SDS011;3038;51.122;6.840;2023-04-02T09:13:12;8.13;;;7.10;;
6019;SDS011;3038;51.122;6.840;2023-04-02T09:15:46;8.63;;;7.83;;
6019;SDS011;3038;51.122;6.840;2023-04-02T09:18:17;7.77;;;6.70;;
6019;SDS011;3038;51.122;6.840;2023-04-02T09:20:43;9.30;;;6.70;;
6019;SDS011;3038;51.122;6.840;2023-04-02T09:23:16;7.20;;;6.60;;
6019;SDS011;3038;51.122;6.840;2023-04-02T09:25:46;8.70;;;7.30;;
6019;SDS011;3038;51.122;6.840;2023-04-02T09:28:14;7.23;;;6.53;;
6019;SDS011;3038;51.122;6.840;2023-04-02T09:30:57;7.43;;;6.60;;
6019;SDS011;3038;51.122;6.840;2023-04-02T09:39:08;7.33;;;5.50;;
6019;SDS011;3038;51.122;6.840;2023-04-02T09:41:41;6.87;;;6.17;;
6019;SDS011;3038;51.122;6.840;2023-04-02T09:44:11;8.93;;;6.30;;
6019;SDS011;3038;51.122;6.840;2023-04-02T09:46:50;6.40;;;5.80;;
6019;SDS011;3038;51.122;6.840;2023-04-02T09:49:31;6.60;;;6.00;;
6019;SDS011;3038;51.122;6.840;2023-04-02T09:52:19;7.90;;;6.13;;
6019;SDS011;3038;51.122;6.840;2023-04-02T09:57:50;6.50;;;5.97;;
6019;SDS011;3038;51.122;6.840;2023-04-02T10:00:31;6.47;;;5.60;;
6019;SDS011;3038;51.122;6.840;2023-04-02T10:03:01;6.60;;;5.93;;
6019;SDS011;3038;51.122;6.840;2023-04-02T10:05:28;6.80;;;6.17;;
6019;SDS011;3038;51.122;6.840;2023-04-02T10:10:54;6.47;;;5.83;;
6019;SDS011;3038;51.122;6.840;2023-04-02T10:13:27;8.77;;;6.57;;
6019;SDS011;3038;51.122;6.840;2023-04-02T10:15:59;7.17;;;6.30;;
6019;SDS011;3038;51.122;6.840;2023-04-02T10:18:32;5.93;;;5.17;;
6019;SDS011;3038;51.122;6.840;2023-04-02T10:21:04;7.00;;;5.50;;
6019;SDS011;3038;51.122;6.840;2023-04-02T10:23:31;7.50;;;6.67;;
6019;SDS011;3038;51.122;6.840;2023-04-02T10:28:48;7.43;;;5.40;;
6019;SDS011;3038;51.122;6.840;2023-04-02T10:34:07;8.20;;;6.63;;
6019;SDS011;3038;51.122;6.840;2023-04-02T10:36:55;6.17;;;5.30;;
6019;SDS011;3038;51.122;6.840;2023-04-02T10:39:27;6.30;;;5.60;;
6019;SDS011;3038;51.122;6.840;2023-04-02T10:50:41;6.37;;;5.87;;
6019;SDS011;3038;51.122;6.840;2023-04-02T10:53:19;7.43;;;6.10;;
6019;SDS011;3038;51.122;6.840;2023-04-02T10:55:51;7.33;;;5.20;;
6019;SDS011;3038;51.122;6.840;2023-04-02T10:58:24;7.07;;;4.57;;
6019;SDS011;3038;51.122;6.840;2023-04-02T11:00:52;5.77;;;4.60;;
6019;SDS011;3038;51.122;6.840;2023-04-02T11:03:35;6.13;;;5.53;;
6019;SDS011;3038;51.122;6.840;2023-04-02T11:06:10;5.40;;;4.80;;
6019;SDS011;3038;51.122;6.840;2023-04-02T11:08:49;7.50;;;5.10;;
6019;SDS011;3038;51.122;6.840;2023-04-02T11:11:25;5.20;;;4.80;;
6019;SDS011;3038;51.122;6.840;2023-04-02T11:13:59;4.70;;;4.30;;
6019;SDS011;3038;51.122;6.840;2023-04-02T11:16:30;8.87;;;5.07;;
6019;SDS011;3038;51.122;6.840;2023-04-02T11:21:40;4.93;;;4.47;;
6019;SDS011;3038;51.122;6.840;2023-04-02T11:29:39;4.90;;;4.50;;
6019;SDS011;3038;51.122;6.840;2023-04-02T11:39:59;5.27;;;4.80;;
